createdAt,value
2019-05-09T00:00:07.208Z,98904.38
2019-05-09T00:05:11.008Z,98903.26
2019-05-09T00:10:14.808Z,98912.88
2019-05-09T00:15:18.783Z,98906.63
2019-05-09T00:20:28.009Z,98909.58
2019-05-09T00:25:31.461Z,98915.31
2019-05-09T00:30:54.116Z,98923.12
2019-05-09T00:35:57.580Z,98922.17
2019-05-09T00:41:03.707Z,98927.27
2019-05-09T00:46:07.908Z,98921.25
2019-05-09T00:51:11.395Z,98921.08
2019-05-09T00:56:15.670Z,98923.12
2019-05-09T01:01:19.471Z,98922.08
2019-05-09T01:06:23.969Z,98927.58
2019-05-09T01:11:27.669Z,98928.10
2019-05-09T01:16:33.301Z,98926.27
2019-05-09T01:21:37.136Z,98917.48
2019-05-09T01:26:40.591Z,98916.25
2019-05-09T01:31:44.024Z,98916.17
2019-05-09T01:37:07.123Z,98915.92
2019-05-09T01:42:10.867Z,98917.83
2019-05-09T01:47:14.335Z,98916.84
2019-05-09T01:52:19.322Z,98918.53
2019-05-09T01:57:24.414Z,98918.70
2019-05-09T02:02:27.898Z,98923.12
2019-05-09T02:07:33.225Z,98926.98
2019-05-09T02:12:36.737Z,98925.58
2019-05-09T02:17:57.792Z,98918.72
2019-05-09T02:22:50.297Z,98913.58
2019-05-09T02:27:55.259Z,98911.42
2019-05-09T02:32:58.832Z,98916.48
2019-05-09T02:38:02.292Z,98919.54
2019-05-09T02:43:10.227Z,98916.94
2019-05-09T02:48:14.784Z,98918.73
2019-05-09T02:53:19.042Z,98921.79
2019-05-09T02:58:24.175Z,98919.11
2019-05-09T03:03:29.402Z,98921.30
2019-05-09T03:08:33.018Z,98924.17
2019-05-09T03:13:39.424Z,98925.59
2019-05-09T03:18:41.872Z,98931.72
2019-05-09T03:23:45.387Z,98935.72
2019-05-09T03:28:53.008Z,98933.90
2019-05-09T03:33:59.476Z,98942.75
2019-05-09T03:39:01.726Z,98942.88
2019-05-09T03:44:07.306Z,98940.89
2019-05-09T03:49:12.186Z,98932.36
2019-05-09T03:54:18.145Z,98936.75
2019-05-09T03:59:20.827Z,98934.80
2019-05-09T04:04:24.287Z,98937.26
2019-05-09T04:09:27.723Z,98939.02
2019-05-09T04:14:32.969Z,98945.36
2019-05-09T04:19:38.064Z,98943.31
2019-05-09T04:24:41.603Z,98939.92
2019-05-09T04:29:45.252Z,98940.20
2019-05-09T04:34:48.712Z,98943.27
2019-05-09T04:39:53.971Z,98947.73
2019-05-09T04:45:03.572Z,98949.09
2019-05-09T04:50:07.684Z,98950.72
2019-05-09T04:55:12.051Z,98957.78
2019-05-09T05:00:18.539Z,98962.91
2019-05-09T05:05:21.995Z,98969.11
2019-05-09T05:10:27.353Z,98971.44
2019-05-09T05:15:30.636Z,98970.49
2019-05-09T05:20:35.034Z,98970.57
2019-05-09T05:25:38.430Z,98965.44
2019-05-09T05:30:41.890Z,98966.64
2019-05-09T05:35:48.021Z,98975.33
2019-05-09T05:40:51.497Z,98979.30
2019-05-09T05:45:59.144Z,98979.43
2019-05-09T05:51:02.603Z,98976.86
2019-05-09T05:56:08.389Z,98980.53
2019-05-09T06:01:11.213Z,98986.82
2019-05-09T06:06:14.674Z,98986.66
2019-05-09T06:11:18.117Z,98990.23
2019-05-09T06:16:22.364Z,98987.27
2019-05-09T06:21:28.097Z,98989.09
2019-05-09T06:26:33.446Z,98992.44
2019-05-09T06:31:37.626Z,98991.63
2019-05-09T06:36:41.141Z,98998.83
2019-05-09T06:41:44.568Z,99004.95
2019-05-09T06:46:55.597Z,99005.91
2019-05-09T06:51:59.013Z,99010.22
2019-05-09T06:57:02.568Z,99006.94
2019-05-09T07:02:08.339Z,99014.09
2019-05-09T07:07:19.303Z,99002.91
2019-05-09T07:12:22.754Z,98998.97
2019-05-09T07:17:31.832Z,98996.86
2019-05-09T07:22:33.030Z,99000.40
2019-05-09T07:27:39.098Z,99011.48
2019-05-09T07:32:49.769Z,99002.34
2019-05-09T07:37:53.201Z,98996.42
2019-05-09T07:42:58.344Z,98999.92
2019-05-09T07:48:02.504Z,98985.73
2019-05-09T07:53:08.586Z,98990.55
2019-05-09T07:58:14.219Z,98992.09
2019-05-09T08:03:18.125Z,98994.42
2019-05-09T08:08:21.444Z,98993.28
2019-05-09T08:13:24.885Z,98992.69
2019-05-09T08:18:28.372Z,98989.77
2019-05-09T08:23:31.806Z,98985.95
2019-05-09T08:28:35.216Z,98984.16
2019-05-09T08:33:38.633Z,98989.00
2019-05-09T08:38:42.095Z,98981.64
2019-05-09T08:43:48.082Z,98982.30
2019-05-09T08:48:50.766Z,98981.89
2019-05-09T08:53:54.251Z,98988.50
2019-05-09T08:59:01.811Z,98993.66
2019-05-09T09:04:02.823Z,98990.81
2019-05-09T09:09:08.106Z,98989.33
2019-05-09T09:14:11.683Z,98982.97
2019-05-09T09:19:15.113Z,98981.83
2019-05-09T09:24:18.652Z,98982.27
2019-05-09T09:29:22.816Z,98976.86
2019-05-09T09:34:29.387Z,98969.63
2019-05-09T09:39:31.489Z,98968.20
2019-05-09T09:44:34.862Z,98968.89
2019-05-09T09:49:38.753Z,98965.73
2019-05-09T09:54:42.489Z,98968.64
2019-05-09T09:59:48.409Z,98958.86
2019-05-09T10:04:55.041Z,98950.23
2019-05-09T10:09:58.595Z,98958.98
2019-05-09T10:15:03.656Z,98963.38
2019-05-09T10:20:18.723Z,98967.90
2019-05-09T10:25:22.160Z,98963.17
2019-05-09T10:30:34.491Z,98950.83
2019-05-09T10:35:39.258Z,98962.80
2019-05-09T10:40:42.902Z,98958.30
2019-05-09T10:45:57.805Z,98969.36
2019-05-09T10:51:05.084Z,98964.71
2019-05-09T10:56:08.713Z,98959.35
2019-05-09T11:01:11.911Z,98955.52
2019-05-09T11:06:18.016Z,98952.62
2019-05-09T11:11:20.646Z,98953.00
2019-05-09T11:16:38.052Z,98945.22
2019-05-09T11:21:29.309Z,98941.94
2019-05-09T11:26:32.765Z,98946.33
2019-05-09T11:31:38.367Z,98939.49
2019-05-09T11:36:41.399Z,98951.82
2019-05-09T11:41:44.837Z,98954.34
2019-05-09T11:46:48.264Z,98951.88
2019-05-09T11:51:51.695Z,98957.41
2019-05-09T11:56:57.443Z,98958.11
2019-05-09T12:02:00.281Z,98959.83
2019-05-09T12:07:03.707Z,98964.66
2019-05-09T12:12:07.150Z,98956.50
2019-05-09T12:17:10.630Z,98956.47
2019-05-09T12:22:14.256Z,98957.66
2019-05-09T12:27:18.916Z,98962.64
2019-05-09T12:32:22.437Z,98968.98
2019-05-09T12:37:28.019Z,98960.34
2019-05-09T12:42:31.007Z,98958.92
2019-05-09T12:47:34.473Z,98964.92
2019-05-09T12:52:39.172Z,98966.44
2019-05-09T12:57:42.878Z,98969.36
2019-05-09T13:02:46.328Z,98974.58
2019-05-09T13:08:10.567Z,98994.63
2019-05-09T13:13:13.999Z,98994.63
2019-05-09T13:18:22.841Z,98986.31
2019-05-09T13:23:22.753Z,98998.64
2019-05-09T13:28:26.315Z,99004.99
2019-05-09T13:33:29.741Z,99000.80
2019-05-09T13:38:33.783Z,99003.13
2019-05-09T13:43:46.047Z,99008.16
2019-05-09T13:49:05.185Z,99007.09
2019-05-09T13:53:48.444Z,99010.94
2019-05-09T13:58:52.024Z,99011.05
2019-05-09T14:03:57.592Z,99005.06
2019-05-09T14:09:00.693Z,99014.14
2019-05-09T14:14:04.661Z,99019.06
2019-05-09T14:19:25.956Z,99020.42
2019-05-09T14:24:16.637Z,99020.66
2019-05-09T14:29:20.610Z,99031.61
2019-05-09T14:34:23.636Z,99032.37
2019-05-09T14:39:27.662Z,99046.20
2019-05-09T14:44:31.273Z,99051.72
2019-05-09T14:49:42.372Z,99047.92
2019-05-09T14:54:39.890Z,99051.15
2019-05-09T14:59:43.321Z,99051.31
2019-05-09T15:04:48.579Z,99065.67
2019-05-09T15:09:54.088Z,99068.64
2019-05-09T15:14:57.813Z,99064.59
2019-05-09T15:20:01.346Z,99072.36
2019-05-09T15:25:05.309Z,99074.29
2019-05-09T15:30:09.382Z,99081.29
2019-05-09T15:35:13.018Z,99079.54
2019-05-09T15:40:17.665Z,99081.35
2019-05-09T15:45:22.445Z,99084.69
2019-05-09T15:50:27.838Z,99089.37
2019-05-09T15:55:31.038Z,99089.70
2019-05-09T16:00:34.514Z,99098.76
2019-05-09T16:05:38.615Z,99094.50
2019-05-09T16:10:42.091Z,99098.52
2019-05-09T16:15:45.544Z,99104.72
2019-05-09T16:20:48.981Z,99101.84
2019-05-09T16:25:52.412Z,99114.09
2019-05-09T16:30:55.840Z,99108.71
2019-05-09T16:35:59.269Z,99109.34
2019-05-09T16:41:02.753Z,99119.27
2019-05-09T16:46:07.567Z,99118.94
2019-05-09T16:51:11.218Z,99116.89
2019-05-09T16:56:14.779Z,99119.03
2019-05-09T17:01:18.803Z,99112.69
2019-05-09T17:06:22.481Z,99112.42
2019-05-09T17:11:27.792Z,99123.87
2019-05-09T17:16:31.154Z,99120.66
2019-05-09T17:21:39.154Z,99131.69
2019-05-09T17:26:42.663Z,99134.23
2019-05-09T17:31:48.571Z,99135.08
2019-05-09T17:36:51.227Z,99137.45
2019-05-09T17:41:54.777Z,99143.82
2019-05-09T17:46:58.309Z,99154.34
2019-05-09T17:52:02.636Z,99158.59
2019-05-09T17:57:09.315Z,99162.53
2019-05-09T18:02:12.795Z,99161.05
2019-05-09T18:07:18.040Z,99162.13
2019-05-09T18:12:21.420Z,99174.91
2019-05-09T18:17:24.928Z,99186.49
2019-05-09T18:22:28.361Z,99187.42
2019-05-09T18:27:31.791Z,99197.12
2019-05-09T18:32:39.750Z,99201.05
2019-05-09T18:37:43.313Z,99204.03
2019-05-09T18:42:47.566Z,99214.91
2019-05-09T18:47:51.151Z,99215.92
2019-05-09T18:52:54.662Z,99226.86
2019-05-09T18:57:58.073Z,99231.24
2019-05-09T19:03:01.598Z,99230.36
2019-05-09T19:08:05.173Z,99232.44
2019-05-09T19:13:08.597Z,99236.70
2019-05-09T19:23:40.398Z,99251.12
2019-05-09T19:28:43.846Z,99258.00
2019-05-09T19:33:47.334Z,99262.61
2019-05-09T19:38:50.764Z,99267.82
2019-05-09T19:43:54.181Z,99276.83
2019-05-09T19:48:58.111Z,99276.97
2019-05-09T19:54:01.534Z,99292.98
2019-05-09T19:59:07.809Z,99295.30
2019-05-09T20:04:10.355Z,99293.75
2019-05-09T20:09:15.428Z,99299.87
2019-05-09T20:14:23.537Z,99300.26
2019-05-09T20:19:26.979Z,99306.41
2019-05-09T20:24:30.445Z,99312.83
2019-05-09T20:29:33.867Z,99320.22
2019-05-09T20:34:37.333Z,99319.09
2019-05-09T20:39:40.935Z,99329.16
2019-05-09T20:44:44.720Z,99336.23
2019-05-09T20:49:48.346Z,99341.21
2019-05-09T20:54:51.935Z,99343.68
2019-05-09T20:59:55.531Z,99348.66
2019-05-09T21:04:59.131Z,99349.46
2019-05-09T21:10:02.744Z,99360.77
2019-05-09T21:15:08.528Z,99372.12
2019-05-09T21:20:12.358Z,99374.26
2019-05-09T21:25:16.018Z,99381.99
2019-05-09T21:30:19.772Z,99386.70
2019-05-09T21:35:23.183Z,99389.77
2019-05-09T21:40:26.613Z,99401.75
2019-05-09T21:45:30.135Z,99404.90
2019-05-09T21:50:33.558Z,99408.48
2019-05-09T21:55:36.992Z,99426.09
2019-05-09T22:00:44.951Z,99430.86
2019-05-09T22:05:48.388Z,99430.79
2019-05-09T22:10:51.817Z,99436.41
2019-05-09T22:15:55.351Z,99446.28
2019-05-09T22:20:58.882Z,99448.83
2019-05-09T22:26:02.307Z,99458.84
2019-05-09T22:31:05.752Z,99468.03
2019-05-09T22:36:09.206Z,99468.39
2019-05-09T22:41:12.607Z,99469.80
2019-05-09T22:46:16.044Z,99471.71
2019-05-09T22:51:19.711Z,99481.33
2019-05-09T22:56:24.649Z,99486.17
2019-05-09T23:01:28.142Z,99495.11
2019-05-09T23:06:31.676Z,99491.08
2019-05-09T23:11:35.116Z,99496.66
2019-05-09T23:16:40.441Z,99494.74
2019-05-09T23:21:43.922Z,99500.27
2019-05-09T23:26:47.379Z,99500.09
2019-05-09T23:31:58.050Z,99501.11
2019-05-09T23:37:01.549Z,99503.35
2019-05-09T23:42:05.085Z,99508.27
2019-05-09T23:47:08.546Z,99501.53
2019-05-09T23:52:12.077Z,99511.59
2019-05-09T23:57:33.525Z,99512.64
